KVJI/VJI METAR and TAF weather

Enter ICAO airport designator
Station Type Date Time Source
KVJI METAR 2019/07/20 19:55 UTC NOAA

KVJI 201955Z AUTO 27005KT 10SM SCT060 SCT080 30/23 A3009 RMK AO2 LTG DSNT SW T02950228


Station Type Date Time Source
KVJI Decoded METAR 2019/07/20 19:55 UTC NOAA

Abingdon, VA, United States (KVJI) 36-41N 082-02W
Jul 20, 2019 - 03:55 PM EDT / 2019.07.20 1955 UTC
Wind: from the W (270 degrees) at 6 MPH (5 KT):0
Visibility: 10 mile(s):0
Sky conditions: partly cloudy
Weather: Lightning observed
Temperature: 85.1 F (29.5 C)
Heat index: 91.8 F (33.2 C):1
Dew Point: 73.0 F (22.8 C)
Relative Humidity: 67%
Pressure (altimeter): 30.09 in. Hg (1018 hPa)
ob: KVJI 201955Z AUTO 27005KT 10SM SCT060 SCT080 30/23 A3009 RMK AO2 LTG DSNT SW T02950228
cycle: 20

Station Type Date Time Source
KVJI TAF UTC NOAA

Error!

Example: see airport list